Time;durP1;ratioP1;P1;durP2;ratioP2;P2;SDS_P1;SDS_P2;PMS_P1;PMS_P2;Temp;Humidity;BMP_temperature;BMP_pressure;BME280_temperature;BME280_humidity;BME280_pressure;Samples;Min_cycle;Max_cycle;Signal;HPM_P1;HPM_P2
2022/09/22 00:01:26;;;;;;;2.25;1.77;;;6.80;99.90;;;;;;5023696;28;20200;-77
2022/09/22 00:03:55;;;;;;;3.65;1.80;;;6.70;99.90;;;;;;5020422;28;20983;-78
2022/09/22 00:06:24;;;;;;;2.05;1.95;;;6.60;99.90;;;;;;5027534;28;20204;-78
2022/09/22 00:08:53;;;;;;;3.75;3.35;;;6.70;99.90;;;;;;5028247;28;20215;-78
2022/09/22 00:11:22;;;;;;;2.17;1.98;;;6.70;99.90;;;;;;5027955;28;20205;-78
2022/09/22 00:13:53;;;;;;;1.85;0.98;;;6.70;99.90;;;;;;5028452;28;20204;-78
2022/09/22 00:16:21;;;;;;;1.30;1.15;;;6.70;99.90;;;;;;5027621;28;20280;-78
2022/09/22 00:18:48;;;;;;;4.22;2.47;;;7.00;99.90;;;;;;5028030;28;20201;-78
2022/09/22 00:21:18;;;;;;;2.00;1.73;;;6.60;99.90;;;;;;5028032;28;20225;-78
2022/09/22 00:23:46;;;;;;;1.90;1.80;;;6.60;99.90;;;;;;5028459;28;20208;-78
2022/09/22 00:26:15;;;;;;;1.75;1.65;;;6.50;99.90;;;;;;5027504;28;20679;-79
2022/09/22 00:28:44;;;;;;;1.73;1.52;;;6.50;99.90;;;;;;5028086;28;20585;-79
2022/09/22 00:31:16;;;;;;;2.90;2.20;;;6.50;99.90;;;;;;5027359;28;20803;-78
2022/09/22 00:33:43;;;;;;;2.58;2.15;;;6.50;99.90;;;;;;5020640;28;20199;-78
2022/09/22 00:36:10;;;;;;;2.60;1.75;;;6.50;99.90;;;;;;5028056;28;20205;-78
2022/09/22 00:38:38;;;;;;;4.80;3.47;;;6.50;99.90;;;;;;5027443;28;20322;-78
2022/09/22 00:41:07;;;;;;;4.35;2.13;;;6.40;99.90;;;;;;5027571;28;20243;-77
2022/09/22 00:43:36;;;;;;;2.05;1.50;;;6.40;99.90;;;;;;5027389;28;20197;-78
2022/09/22 00:46:09;;;;;;;3.45;1.88;;;6.50;99.90;;;;;;5028066;28;20207;-78
2022/09/22 00:48:43;;;;;;;2.00;1.90;;;6.50;99.90;;;;;;5027718;28;20315;-77
2022/09/22 00:51:13;;;;;;;2.22;2.03;;;6.60;99.90;;;;;;5027737;28;20193;-78
2022/09/22 00:53:40;;;;;;;1.83;1.73;;;6.50;99.90;;;;;;5025505;28;20196;-79
2022/09/22 00:56:11;;;;;;;3.78;1.92;;;6.40;99.90;;;;;;5025866;28;20280;-80
2022/09/22 00:58:42;;;;;;;2.45;2.25;;;6.50;99.90;;;;;;5021165;28;20280;-78
2022/09/22 01:01:09;;;;;;;3.55;3.08;;;6.40;99.90;;;;;;5027190;28;20214;-79
2022/09/22 01:03:39;;;;;;;3.15;2.85;;;6.40;99.90;;;;;;5015775;28;20223;-78
2022/09/22 01:06:10;;;;;;;2.45;2.22;;;6.40;99.90;;;;;;5025520;28;20549;-79
2022/09/22 01:08:39;;;;;;;1.90;1.65;;;6.40;99.90;;;;;;5026293;28;20227;-78
2022/09/22 01:11:07;;;;;;;3.67;1.90;;;6.30;99.90;;;;;;5027303;28;20286;-78
2022/09/22 01:13:42;;;;;;;3.20;1.70;;;6.30;99.90;;;;;;5027570;28;20307;-77
2022/09/22 01:16:25;;;;;;;1.67;1.55;;;6.20;99.90;;;;;;5026816;28;20200;-78
2022/09/22 01:19:05;;;;;;;1.40;1.15;;;6.30;99.90;;;;;;5026977;28;20223;-78
2022/09/22 01:21:41;;;;;;;3.10;1.77;;;6.30;99.90;;;;;;5027412;28;20641;-78
2022/09/22 01:24:48;;;;;;;1.30;1.25;;;6.20;99.90;;;;;;5027274;28;20200;-77
2022/09/22 01:27:36;;;;;;;2.20;2.00;;;6.20;99.90;;;;;;5027244;28;20236;-78
2022/09/22 01:30:20;;;;;;;2.00;1.80;;;6.00;99.90;;;;;;5027209;28;20203;-78
2022/09/22 01:33:00;;;;;;;2.10;1.63;;;6.00;99.90;;;;;;5026843;28;20192;-77
2022/09/22 01:35:32;;;;;;;1.80;1.38;;;6.10;99.90;;;;;;5024868;28;20304;-78
2022/09/22 01:38:09;;;;;;;1.70;1.30;;;6.00;99.90;;;;;;5027624;28;20197;-78
2022/09/22 01:40:42;;;;;;;2.38;2.17;;;6.00;99.90;;;;;;5026898;28;20663;-78
2022/09/22 01:43:18;;;;;;;4.10;2.85;;;6.00;99.90;;;;;;5026719;28;20209;-79
2022/09/22 01:45:48;;;;;;;1.73;1.60;;;5.90;99.90;;;;;;5026419;28;20208;-78
2022/09/22 01:48:19;;;;;;;2.85;1.70;;;5.90;99.90;;;;;;5026671;28;20252;-77
2022/09/22 01:50:53;;;;;;;2.58;2.40;;;5.90;99.90;;;;;;5026910;28;20189;-78
2022/09/22 01:53:24;;;;;;;1.60;1.50;;;5.80;99.90;;;;;;5027093;28;20193;-78
2022/09/22 01:55:57;;;;;;;1.55;1.45;;;5.80;99.90;;;;;;5026293;28;20189;-77
2022/09/22 01:58:29;;;;;;;1.67;1.33;;;5.70;99.90;;;;;;5026140;28;20251;-78
2022/09/22 02:01:04;;;;;;;2.30;2.13;;;5.70;99.90;;;;;;5026756;28;20287;-78
2022/09/22 02:03:37;;;;;;;1.50;1.40;;;5.70;99.90;;;;;;5026333;28;20207;-79
2022/09/22 02:06:09;;;;;;;2.22;2.00;;;5.80;99.90;;;;;;5011994;28;20197;-78
2022/09/22 02:08:40;;;;;;;2.60;1.88;;;5.90;99.90;;;;;;5026987;28;20240;-78
2022/09/22 02:11:11;;;;;;;4.80;1.80;;;5.90;99.90;;;;;;5026092;28;20224;-80
2022/09/22 02:13:38;;;;;;;1.92;1.80;;;5.90;99.90;;;;;;5026649;28;20227;-78
2022/09/22 02:16:07;;;;;;;1.88;1.77;;;5.80;99.90;;;;;;5026929;28;20280;-79
2022/09/22 02:18:41;;;;;;;1.80;1.30;;;5.80;99.90;;;;;;5008733;28;20201;-78
2022/09/22 02:21:09;;;;;;;1.65;1.30;;;5.70;99.90;;;;;;5028817;28;20968;-78
2022/09/22 02:23:36;;;;;;;1.60;1.50;;;5.70;99.90;;;;;;5031957;28;20207;-78
2022/09/22 02:26:05;;;;;;;8.30;1.67;;;5.60;99.90;;;;;;5034610;28;20282;-78
2022/09/22 02:28:34;;;;;;;3.13;2.17;;;5.60;99.90;;;;;;5030640;28;20232;-78
2022/09/22 02:31:05;;;;;;;2.05;1.95;;;6.20;99.90;;;;;;5030434;28;20699;-77
2022/09/22 02:33:37;;;;;;;2.80;2.22;;;5.70;99.90;;;;;;5029419;28;20197;-78
2022/09/22 02:36:15;;;;;;;2.28;1.30;;;5.70;99.90;;;;;;5030282;28;20209;-78
2022/09/22 02:38:50;;;;;;;1.50;1.40;;;5.70;99.90;;;;;;5029886;28;20817;-78
2022/09/22 02:41:26;;;;;;;1.75;1.38;;;5.70;99.90;;;;;;5029752;28;20226;-78
2022/09/22 02:44:00;;;;;;;2.10;1.92;;;5.70;99.90;;;;;;5030430;28;20203;-77
2022/09/22 02:46:32;;;;;;;1.77;1.65;;;5.60;99.90;;;;;;5029400;28;20496;-78
2022/09/22 02:49:04;;;;;;;1.75;1.65;;;5.60;99.90;;;;;;5029747;28;20232;-78
2022/09/22 02:51:33;;;;;;;2.50;1.55;;;5.60;99.90;;;;;;5029538;28;20207;-77
2022/09/22 02:54:00;;;;;;;3.80;2.15;;;5.60;99.90;;;;;;5029390;28;20314;-78
2022/09/22 02:56:28;;;;;;;1.20;1.10;;;5.60;99.90;;;;;;5028706;28;20258;-78
2022/09/22 02:58:55;;;;;;;2.03;1.83;;;5.60;99.90;;;;;;5028442;28;20220;-78
2022/09/22 03:01:22;;;;;;;1.30;1.20;;;5.60;99.90;;;;;;5029599;28;20201;-77
2022/09/22 03:03:49;;;;;;;1.20;1.15;;;5.60;99.90;;;;;;5029655;28;20546;-78
2022/09/22 03:06:17;;;;;;;2.30;2.00;;;5.50;99.90;;;;;;5029179;28;20255;-78
2022/09/22 03:08:44;;;;;;;2.25;1.70;;;5.60;99.90;;;;;;5030032;28;20216;-78
2022/09/22 03:11:11;;;;;;;2.92;2.38;;;5.50;99.90;;;;;;5028435;28;20197;-77
2022/09/22 03:13:37;;;;;;;1.48;0.80;;;5.50;99.90;;;;;;5029270;28;20691;-77
2022/09/22 03:16:05;;;;;;;1.52;1.42;;;5.50;99.90;;;;;;5029105;28;20925;-78
2022/09/22 03:18:32;;;;;;;1.90;1.75;;;5.40;99.90;;;;;;5029107;28;20200;-78
2022/09/22 03:20:58;;;;;;;1.08;1.08;;;5.50;99.90;;;;;;5029327;28;20207;-78
2022/09/22 03:23:27;;;;;;;2.05;1.75;;;5.50;99.90;;;;;;5029767;28;20220;-78
2022/09/22 03:25:53;;;;;;;1.75;1.63;;;5.60;99.90;;;;;;5028419;28;20620;-77
2022/09/22 03:28:20;;;;;;;2.40;1.60;;;5.50;99.90;;;;;;5029678;28;20236;-78
2022/09/22 03:30:47;;;;;;;1.70;1.60;;;5.40;99.90;;;;;;5028421;28;20200;-77
2022/09/22 03:33:14;;;;;;;1.70;1.17;;;5.50;99.90;;;;;;5028930;28;20197;-78
2022/09/22 03:35:41;;;;;;;1.58;0.95;;;5.50;99.90;;;;;;5019745;28;20206;-78
2022/09/22 03:38:08;;;;;;;2.85;1.80;;;5.40;99.90;;;;;;5027631;28;20531;-78
2022/09/22 03:40:36;;;;;;;2.55;1.70;;;5.40;99.90;;;;;;5028278;28;20189;-81
2022/09/22 03:43:03;;;;;;;2.80;2.60;;;5.40;99.90;;;;;;5025974;28;20202;-78
2022/09/22 03:45:30;;;;;;;1.17;1.10;;;5.30;99.90;;;;;;5027885;28;20550;-78
2022/09/22 03:47:57;;;;;;;1.38;1.25;;;5.40;99.90;;;;;;5028643;28;20228;-78
2022/09/22 03:50:24;;;;;;;1.48;1.35;;;5.30;99.90;;;;;;5029024;28;20205;-78
2022/09/22 03:52:51;;;;;;;1.52;1.38;;;5.30;99.90;;;;;;5028111;28;20286;-78
2022/09/22 03:55:18;;;;;;;3.10;1.75;;;5.30;99.90;;;;;;5028498;28;20204;-78
2022/09/22 03:57:46;;;;;;;1.67;1.58;;;5.30;99.90;;;;;;5028804;28;20201;-78
2022/09/22 04:00:15;;;;;;;1.83;1.70;;;5.40;99.90;;;;;;5028338;28;20283;-78
2022/09/22 04:02:42;;;;;;;2.55;2.13;;;5.40;99.90;;;;;;5023734;28;20196;-78
2022/09/22 04:05:10;;;;;;;1.45;1.30;;;5.40;99.90;;;;;;5021006;28;20208;-77
2022/09/22 04:07:37;;;;;;;2.33;1.90;;;5.40;99.90;;;;;;5027816;28;20212;-78
2022/09/22 04:10:05;;;;;;;1.10;0.90;;;5.40;99.90;;;;;;5028144;28;20912;-78
2022/09/22 04:12:32;;;;;;;1.48;1.40;;;5.30;99.90;;;;;;5028305;28;20197;-78
2022/09/22 04:15:00;;;;;;;1.35;1.15;;;5.20;99.90;;;;;;5028333;28;20219;-78
2022/09/22 04:17:27;;;;;;;1.15;1.15;;;5.30;99.90;;;;;;5027826;28;20204;-78
2022/09/22 04:19:54;;;;;;;3.10;2.28;;;5.20;99.90;;;;;;5028333;28;20201;-78
2022/09/22 04:22:21;;;;;;;2.05;1.92;;;5.20;99.90;;;;;;5027896;28;20212;-79
2022/09/22 04:24:47;;;;;;;1.73;1.20;;;5.20;99.90;;;;;;5028667;28;20243;-78
2022/09/22 04:27:14;;;;;;;2.88;2.20;;;5.20;99.90;;;;;;5028274;28;20566;-78
2022/09/22 04:29:41;;;;;;;2.20;2.00;;;5.20;99.90;;;;;;5027993;28;20228;-79
2022/09/22 04:32:10;;;;;;;2.65;1.70;;;5.20;99.90;;;;;;5027307;28;20280;-79
2022/09/22 04:34:36;;;;;;;1.00;0.93;;;5.20;99.90;;;;;;5026868;28;20216;-78
2022/09/22 04:37:03;;;;;;;2.55;1.42;;;5.20;99.90;;;;;;5027961;28;20211;-78
2022/09/22 04:39:30;;;;;;;2.47;1.70;;;5.10;99.90;;;;;;5018891;28;20687;-78
2022/09/22 04:41:57;;;;;;;1.95;1.60;;;5.10;99.90;;;;;;5018376;28;20656;-78
2022/09/22 04:44:24;;;;;;;1.83;1.73;;;5.10;99.90;;;;;;5016868;28;20196;-79
2022/09/22 04:46:51;;;;;;;3.15;2.13;;;5.20;99.90;;;;;;5018442;28;20236;-78
2022/09/22 04:49:19;;;;;;;1.80;1.05;;;5.20;99.90;;;;;;5018038;28;20241;-79
2022/09/22 04:51:45;;;;;;;3.55;1.80;;;5.10;99.90;;;;;;5019927;28;20195;-79
2022/09/22 04:54:13;;;;;;;1.30;1.23;;;5.10;99.90;;;;;;5022711;28;20193;-78
2022/09/22 04:56:40;;;;;;;1.63;1.52;;;5.10;99.90;;;;;;5027628;28;20910;-78
2022/09/22 04:59:07;;;;;;;1.00;0.95;;;5.10;99.90;;;;;;5020880;28;20271;-78
2022/09/22 05:01:34;;;;;;;1.60;1.50;;;5.00;99.90;;;;;;5027046;28;20204;-79
2022/09/22 05:04:01;;;;;;;3.78;1.52;;;4.90;99.90;;;;;;5024163;28;20332;-78
2022/09/22 05:06:29;;;;;;;10.52;2.10;;;4.90;99.90;;;;;;5018744;28;20230;-78
2022/09/22 05:08:57;;;;;;;1.75;1.65;;;4.90;99.90;;;;;;5021157;28;20263;-78
2022/09/22 05:11:24;;;;;;;1.73;1.42;;;4.90;99.90;;;;;;5025151;28;20200;-78
2022/09/22 05:13:51;;;;;;;2.55;1.98;;;4.90;99.90;;;;;;5025580;28;20280;-78
2022/09/22 05:16:18;;;;;;;2.40;2.22;;;4.90;99.90;;;;;;5020311;28;20287;-78
2022/09/22 05:18:45;;;;;;;3.53;3.00;;;4.90;99.90;;;;;;5027102;28;20292;-78
2022/09/22 05:21:12;;;;;;;3.95;3.55;;;5.00;99.90;;;;;;5026485;28;20648;-78
2022/09/22 05:23:40;;;;;;;3.78;3.33;;;5.10;99.90;;;;;;5026801;28;20197;-78
2022/09/22 05:26:07;;;;;;;4.32;3.78;;;5.20;99.90;;;;;;5027019;28;20280;-80
2022/09/22 05:28:34;;;;;;;3.92;3.60;;;5.10;99.90;;;;;;5027198;28;20220;-78
2022/09/22 05:31:01;;;;;;;3.03;1.90;;;5.10;99.90;;;;;;5026101;28;20238;-78
2022/09/22 05:33:27;;;;;;;1.65;1.15;;;5.10;99.90;;;;;;5027077;28;20910;-77
2022/09/22 05:35:54;;;;;;;2.13;2.03;;;5.00;99.90;;;;;;5014822;28;20299;-78
2022/09/22 05:38:21;;;;;;;2.15;1.75;;;5.10;99.90;;;;;;5016089;28;20238;-79
2022/09/22 05:40:49;;;;;;;1.90;1.55;;;5.00;99.90;;;;;;5026514;28;20283;-79
2022/09/22 05:43:16;;;;;;;3.03;2.03;;;5.10;99.90;;;;;;5025080;28;20283;-77
2022/09/22 05:45:43;;;;;;;1.90;1.80;;;5.20;99.90;;;;;;5024958;28;20214;-78
2022/09/22 05:48:10;;;;;;;3.85;2.85;;;5.20;99.90;;;;;;5026498;28;20201;-79
2022/09/22 05:50:37;;;;;;;2.38;1.60;;;5.30;99.90;;;;;;5026460;28;20812;-78
2022/09/22 05:53:06;;;;;;;1.25;1.15;;;5.30;99.90;;;;;;5026349;28;20185;-78
2022/09/22 05:55:33;;;;;;;1.35;1.30;;;5.40;99.90;;;;;;5028436;28;20792;-78
2022/09/22 05:58:02;;;;;;;1.60;1.40;;;5.40;99.90;;;;;;5030026;28;20200;-78
2022/09/22 06:00:30;;;;;;;3.30;1.83;;;5.60;99.90;;;;;;5030519;28;20199;-79
2022/09/22 06:02:57;;;;;;;1.65;1.20;;;5.40;99.90;;;;;;5027310;28;20200;-79
2022/09/22 06:05:24;;;;;;;1.60;1.50;;;5.40;99.90;;;;;;5030854;28;20208;-79
2022/09/22 06:07:59;;;;;;;2.30;2.15;;;5.40;99.90;;;;;;5034108;28;20621;-79
2022/09/22 06:10:26;;;;;;;5.60;2.38;;;5.50;99.90;;;;;;5040993;28;20240;-79
2022/09/22 06:13:05;;;;;;;1.80;1.58;;;5.60;99.90;;;;;;5021995;28;20201;-78
2022/09/22 06:15:33;;;;;;;2.85;1.75;;;5.60;99.90;;;;;;5017846;28;20259;-79
2022/09/22 06:18:00;;;;;;;3.00;2.67;;;5.70;99.90;;;;;;5023526;28;20296;-79
2022/09/22 06:20:27;;;;;;;1.95;1.85;;;5.70;99.90;;;;;;5024138;28;20190;-79
2022/09/22 06:22:55;;;;;;;1.60;1.50;;;5.80;99.90;;;;;;5024093;28;20648;-80
2022/09/22 06:25:23;;;;;;;2.85;2.30;;;5.80;99.90;;;;;;5024603;28;20200;-79
2022/09/22 06:27:59;;;;;;;1.95;1.75;;;5.90;99.90;;;;;;5027040;28;20266;-79
2022/09/22 06:30:27;;;;;;;2.97;2.50;;;6.00;99.90;;;;;;5024881;28;20753;-79
2022/09/22 06:32:55;;;;;;;1.88;1.52;;;6.20;99.90;;;;;;5027125;28;20201;-79
2022/09/22 06:35:22;;;;;;;5.00;2.28;;;6.20;99.90;;;;;;5015828;28;20220;-80
2022/09/22 06:37:56;;;;;;;3.65;2.50;;;6.40;99.90;;;;;;5025492;28;20279;-79
2022/09/22 06:40:23;;;;;;;1.15;1.10;;;6.50;99.90;;;;;;5024913;28;20251;-79
2022/09/22 06:42:49;;;;;;;2.78;2.63;;;6.70;99.90;;;;;;5027957;28;20211;-79
2022/09/22 06:45:17;;;;;;;1.67;1.58;;;6.90;99.90;;;;;;5022472;28;20205;-79
2022/09/22 06:47:45;;;;;;;4.00;2.42;;;7.10;99.90;;;;;;5024025;28;20699;-79
2022/09/22 06:50:12;;;;;;;3.38;3.08;;;7.40;99.90;;;;;;5028003;28;20798;-79
2022/09/22 06:52:39;;;;;;;4.07;3.78;;;7.60;99.90;;;;;;5029247;28;20208;-79
2022/09/22 06:55:06;;;;;;;3.35;2.50;;;7.80;99.90;;;;;;5028877;28;20292;-79
2022/09/22 06:57:33;;;;;;;2.30;2.10;;;8.00;99.90;;;;;;5028618;28;20201;-79
2022/09/22 07:00:00;;;;;;;2.20;2.10;;;8.00;99.90;;;;;;5029643;28;20241;-79
2022/09/22 07:02:28;;;;;;;3.30;2.13;;;8.30;99.90;;;;;;5026753;28;20260;-79
2022/09/22 07:04:57;;;;;;;2.35;1.90;;;8.40;99.90;;;;;;5029301;28;20640;-79
2022/09/22 07:07:25;;;;;;;3.00;2.47;;;8.50;99.90;;;;;;5024991;28;20196;-79
2022/09/22 07:09:53;;;;;;;2.00;1.57;;;8.70;99.90;;;;;;5029117;28;20991;-79
2022/09/22 07:12:21;;;;;;;2.87;2.20;;;8.80;99.90;;;;;;5028917;28;20623;-79
2022/09/22 07:14:49;;;;;;;2.50;2.30;;;8.90;99.90;;;;;;5028430;28;20639;-79
2022/09/22 07:17:16;;;;;;;2.60;2.40;;;9.00;99.90;;;;;;5020574;28;20721;-79
2022/09/22 07:19:45;;;;;;;1.47;1.37;;;9.20;99.90;;;;;;5023142;28;20623;-79
2022/09/22 07:22:14;;;;;;;2.10;1.90;;;9.30;99.90;;;;;;5019564;28;20627;-80
2022/09/22 07:24:41;;;;;;;2.77;2.57;;;9.50;99.90;;;;;;5029527;28;20627;-79
2022/09/22 07:27:09;;;;;;;1.73;1.53;;;9.60;99.90;;;;;;5028900;28;20631;-80
2022/09/22 07:29:36;;;;;;;1.60;1.50;;;9.80;99.90;;;;;;5027812;28;20670;-79
2022/09/22 07:32:03;;;;;;;2.23;1.40;;;9.80;99.10;;;;;;5026987;28;20730;-79
2022/09/22 07:34:31;;;;;;;1.77;1.20;;;9.80;99.60;;;;;;5023462;28;21280;-78
2022/09/22 07:36:58;;;;;;;2.00;1.90;;;10.00;98.40;;;;;;5028421;28;20628;-79
2022/09/22 07:39:27;;;;;;;2.47;2.23;;;10.10;98.10;;;;;;5028404;28;20637;-79
2022/09/22 07:41:53;;;;;;;2.33;2.10;;;10.10;98.50;;;;;;5028631;28;20641;-79
2022/09/22 07:47:04;;;;;;;2.70;1.53;;;10.40;98.20;;;;;;5027675;28;20714;-78
2022/09/22 07:49:31;;;;;;;1.87;1.77;;;10.50;97.50;;;;;;5028562;28;20655;-79
2022/09/22 07:51:59;;;;;;;1.90;1.80;;;10.60;97.90;;;;;;5028000;28;20641;-79
2022/09/22 07:54:27;;;;;;;2.20;1.37;;;10.80;97.50;;;;;;5028084;28;20674;-79
2022/09/22 07:56:57;;;;;;;2.03;1.83;;;10.80;96.20;;;;;;5025368;28;21334;-79
2022/09/22 07:59:24;;;;;;;3.47;2.20;;;11.00;96.10;;;;;;5028594;28;20993;-79
2022/09/22 08:01:52;;;;;;;2.03;1.70;;;11.10;95.60;;;;;;5028036;28;20622;-78
2022/09/22 08:04:21;;;;;;;3.90;1.80;;;11.10;95.20;;;;;;5026557;28;20619;-79
2022/09/22 08:06:51;;;;;;;1.53;1.20;;;11.30;95.00;;;;;;5026261;28;21235;-78
2022/09/22 08:09:18;;;;;;;1.50;1.20;;;11.40;95.20;;;;;;5026268;28;20666;-79
2022/09/22 08:11:48;;;;;;;1.93;1.53;;;11.50;94.30;;;;;;5027770;28;20624;-79
2022/09/22 08:14:17;;;;;;;1.77;1.50;;;11.50;94.20;;;;;;5027289;28;20726;-78
2022/09/22 08:16:44;;;;;;;3.30;1.57;;;11.60;94.10;;;;;;5026972;28;20674;-79
2022/09/22 08:19:12;;;;;;;1.33;1.23;;;11.70;93.90;;;;;;5027058;28;20685;-78
2022/09/22 08:21:40;;;;;;;1.13;1.10;;;11.80;93.80;;;;;;5013030;28;20767;-79
2022/09/22 08:24:10;;;;;;;1.80;1.70;;;11.90;93.80;;;;;;5027574;28;20624;-80
2022/09/22 08:26:37;;;;;;;1.50;1.40;;;12.00;93.70;;;;;;5027802;28;20719;-79
2022/09/22 08:29:06;;;;;;;1.53;1.33;;;12.10;94.10;;;;;;5027773;28;20639;-78
2022/09/22 08:31:35;;;;;;;1.83;1.70;;;12.20;93.70;;;;;;5028188;28;20635;-78
2022/09/22 08:34:04;;;;;;;1.63;1.53;;;12.20;92.70;;;;;;5025863;28;20651;-79
2022/09/22 08:36:31;;;;;;;1.60;1.47;;;12.30;93.00;;;;;;5027326;28;20637;-79
2022/09/22 08:38:59;;;;;;;1.80;1.70;;;12.40;92.10;;;;;;5013675;28;20628;-79
2022/09/22 08:41:37;;;;;;;1.40;1.30;;;12.50;91.60;;;;;;5024831;28;20738;-78
2022/09/22 08:44:17;;;;;;;2.20;1.50;;;12.50;91.10;;;;;;5027778;28;20631;-79
2022/09/22 08:46:46;;;;;;;2.37;1.77;;;12.50;91.20;;;;;;5025456;28;21078;-79
2022/09/22 08:52:09;;;;;;;1.63;1.53;;;12.70;91.40;;;;;;5026904;28;21124;-79
2022/09/22 08:54:37;;;;;;;1.33;1.20;;;12.90;92.00;;;;;;5024027;28;20726;-78
2022/09/22 08:57:22;;;;;;;1.60;1.37;;;13.20;91.20;;;;;;5026030;28;21279;-79
2022/09/22 08:59:56;;;;;;;0.80;0.80;;;13.20;91.00;;;;;;5025675;28;20655;-79
2022/09/22 09:02:42;;;;;;;1.20;1.20;;;13.30;90.90;;;;;;5025448;28;20635;-79
2022/09/22 09:05:42;;;;;;;1.13;1.03;;;13.40;91.60;;;;;;5018898;28;21244;-80
2022/09/22 09:08:30;;;;;;;1.60;1.50;;;13.40;91.10;;;;;;5023120;28;20613;-80
2022/09/22 09:11:06;;;;;;;3.43;1.60;;;13.50;89.50;;;;;;5021803;28;20665;-79
2022/09/22 09:13:53;;;;;;;0.90;0.87;;;13.60;89.50;;;;;;5026843;28;20721;-79
2022/09/22 09:16:42;;;;;;;0.60;0.60;;;13.70;90.20;;;;;;5025613;28;20739;-79
2022/09/22 09:19:15;;;;;;;1.20;1.10;;;13.70;90.10;;;;;;5012310;28;20621;-80
2022/09/22 09:21:49;;;;;;;1.77;0.73;;;13.90;89.60;;;;;;5015550;28;20628;-79
2022/09/22 09:24:26;;;;;;;0.80;0.80;;;13.90;86.40;;;;;;5025281;28;20723;-78
2022/09/22 09:26:55;;;;;;;0.70;0.70;;;13.90;87.80;;;;;;5019603;28;20742;-78
2022/09/22 09:29:26;;;;;;;1.10;1.00;;;14.00;85.30;;;;;;5026347;28;20635;-78
2022/09/22 09:31:56;;;;;;;0.80;0.70;;;14.00;85.30;;;;;;5029675;28;20623;-79
2022/09/22 09:34:27;;;;;;;1.30;1.07;;;14.10;84.80;;;;;;5025821;28;20671;-79
2022/09/22 09:37:06;;;;;;;0.93;0.93;;;14.10;84.90;;;;;;5025434;28;20623;-79
2022/09/22 09:39:36;;;;;;;0.90;0.90;;;14.20;85.00;;;;;;5030445;28;20677;-79
2022/09/22 09:42:13;;;;;;;1.50;1.40;;;14.20;84.50;;;;;;5031055;28;20722;-79
2022/09/22 09:44:40;;;;;;;1.93;1.33;;;14.30;84.50;;;;;;5012908;28;20634;-79
2022/09/22 09:47:18;;;;;;;1.90;1.03;;;14.40;83.90;;;;;;5029997;28;20629;-80
2022/09/22 09:49:45;;;;;;;1.50;0.77;;;14.30;82.90;;;;;;5019238;28;20637;-79
2022/09/22 09:52:14;;;;;;;0.70;0.70;;;14.40;82.10;;;;;;5029633;28;20631;-79
2022/09/22 09:54:42;;;;;;;0.40;0.40;;;14.40;82.90;;;;;;5030841;28;21347;-79
2022/09/22 09:57:10;;;;;;;0.60;0.60;;;14.60;82.90;;;;;;5029676;28;20991;-78
2022/09/22 10:02:27;;;;;;;1.13;1.00;;;14.60;80.90;;;;;;5026351;28;20616;-79
2022/09/22 10:04:57;;;;;;;1.03;0.97;;;14.70;83.60;;;;;;5023964;28;20637;-78
2022/09/22 10:07:26;;;;;;;1.10;0.70;;;14.70;81.40;;;;;;5029731;28;20623;-79
2022/09/22 10:09:55;;;;;;;1.10;1.03;;;14.70;80.60;;;;;;5029505;28;20626;-79
2022/09/22 10:12:25;;;;;;;0.67;0.67;;;14.80;81.80;;;;;;5030380;28;21155;-79
2022/09/22 10:14:53;;;;;;;0.60;0.60;;;14.80;82.00;;;;;;5029864;28;20629;-79
2022/09/22 10:17:28;;;;;;;0.70;0.53;;;14.90;80.70;;;;;;5029469;28;20753;-79
2022/09/22 10:20:19;;;;;;;0.90;0.90;;;14.90;81.20;;;;;;5028847;28;20717;-78
2022/09/22 10:22:46;;;;;;;1.07;0.97;;;14.90;81.00;;;;;;5030217;28;20627;-78
2022/09/22 10:25:23;;;;;;;1.00;1.00;;;15.00;81.20;;;;;;5030232;28;20692;-79
2022/09/22 10:28:00;;;;;;;1.07;0.93;;;15.00;80.80;;;;;;5030086;28;20725;-79
2022/09/22 10:30:35;;;;;;;1.30;1.20;;;15.10;82.80;;;;;;5029461;28;20654;-79
2022/09/22 10:33:13;;;;;;;0.77;0.77;;;15.20;83.30;;;;;;5028666;28;20623;-79
2022/09/22 10:35:41;;;;;;;1.03;0.90;;;15.10;80.60;;;;;;5010311;28;20639;-79
2022/09/22 10:38:15;;;;;;;0.53;0.50;;;15.20;80.90;;;;;;5027665;28;21223;-79
2022/09/22 10:40:46;;;;;;;1.23;0.80;;;15.20;81.50;;;;;;5028467;28;20936;-79
2022/09/22 10:43:33;;;;;;;0.80;0.80;;;15.30;80.70;;;;;;5029832;28;20647;-79
2022/09/22 10:46:15;;;;;;;1.23;0.83;;;15.30;79.90;;;;;;5028893;28;20623;-79
2022/09/22 10:48:47;;;;;;;2.20;0.87;;;15.30;78.70;;;;;;5009598;28;21196;-79
2022/09/22 10:51:21;;;;;;;0.83;0.83;;;15.30;80.60;;;;;;5017823;28;20781;-81
2022/09/22 10:54:15;;;;;;;0.97;0.70;;;15.10;80.40;;;;;;5028471;28;20623;-79
2022/09/22 10:56:46;;;;;;;1.20;1.10;;;15.20;80.90;;;;;;5026057;28;21282;-79
2022/09/22 10:59:32;;;;;;;0.80;0.80;;;15.30;78.90;;;;;;5026684;28;20659;-79
2022/09/22 11:02:18;;;;;;;1.13;1.13;;;15.30;80.30;;;;;;5024684;28;21252;-79
2022/09/22 11:04:57;;;;;;;0.70;0.50;;;15.30;77.10;;;;;;5033388;28;20623;-78
2022/09/22 11:13:35;;;;;;;1.00;0.63;;;15.50;77.70;;;;;;5028009;28;20628;-79
2022/09/22 11:16:21;;;;;;;0.60;0.60;;;15.40;75.60;;;;;;5027396;28;20738;-79
2022/09/22 11:19:07;;;;;;;0.97;0.87;;;15.50;76.10;;;;;;5027826;28;20645;-79
2022/09/22 11:21:47;;;;;;;0.57;0.50;;;15.50;75.00;;;;;;5029492;28;20741;-79
2022/09/22 11:24:29;;;;;;;0.70;0.70;;;15.40;73.40;;;;;;5029214;28;20639;-79
2022/09/22 11:26:59;;;;;;;0.80;0.60;;;15.40;75.20;;;;;;5026144;28;20641;-80
2022/09/22 11:30:02;;;;;;;0.63;0.50;;;15.40;72.50;;;;;;5027918;28;20620;-79
2022/09/22 11:32:52;;;;;;;0.43;0.43;;;15.50;75.10;;;;;;5027423;28;20643;-79
2022/09/22 11:35:42;;;;;;;0.50;0.43;;;15.50;73.80;;;;;;5027799;28;20671;-80
2022/09/22 11:38:39;;;;;;;0.87;0.80;;;15.50;73.70;;;;;;5019140;28;20754;-78
2022/09/22 11:41:20;;;;;;;0.97;0.67;;;15.50;74.50;;;;;;5017873;28;20631;-79
2022/09/22 11:44:00;;;;;;;0.57;0.57;;;15.60;73.20;;;;;;5026834;28;20641;-79
2022/09/22 11:46:39;;;;;;;0.80;0.80;;;15.60;73.50;;;;;;5009367;28;20639;-79
2022/09/22 11:49:18;;;;;;;0.90;0.90;;;15.60;73.10;;;;;;5026125;28;21075;-78
2022/09/22 11:52:02;;;;;;;0.60;0.60;;;15.60;72.30;;;;;;5027320;28;20315;-79
2022/09/22 11:55:01;;;;;;;0.73;0.73;;;15.60;72.70;;;;;;5028440;28;20633;-79
2022/09/22 11:57:32;;;;;;;1.63;0.63;;;15.60;72.10;;;;;;5019177;28;20623;-80
2022/09/22 12:00:02;;;;;;;1.07;0.70;;;15.60;71.90;;;;;;5026916;28;20619;-78
2022/09/22 12:02:34;;;;;;;1.00;0.70;;;15.60;71.20;;;;;;5027347;28;20631;-78
2022/09/22 12:05:04;;;;;;;0.50;0.50;;;15.60;69.10;;;;;;5028061;28;20664;-78
2022/09/22 12:07:36;;;;;;;0.70;0.60;;;15.50;69.50;;;;;;5027140;28;20624;-79
2022/09/22 12:10:12;;;;;;;0.67;0.67;;;15.50;68.70;;;;;;5028205;28;22147;-79
2022/09/22 12:12:42;;;;;;;0.60;0.60;;;15.60;73.10;;;;;;5027664;28;20631;-79
2022/09/22 12:15:20;;;;;;;0.83;0.50;;;15.60;70.50;;;;;;5026936;28;20623;-79
2022/09/22 12:17:54;;;;;;;0.80;0.60;;;15.60;71.70;;;;;;5025711;28;20738;-79
2022/09/22 12:20:36;;;;;;;0.77;0.77;;;15.70;71.90;;;;;;5027086;28;20757;-79
2022/09/22 12:23:22;;;;;;;0.73;0.50;;;15.70;72.60;;;;;;5028339;28;20237;-78
2022/09/22 12:25:53;;;;;;;0.83;0.70;;;15.80;71.20;;;;;;5027422;28;20643;-79
2022/09/22 12:28:25;;;;;;;1.00;0.80;;;15.80;70.50;;;;;;5026932;28;20778;-79
2022/09/22 12:30:55;;;;;;;0.70;0.70;;;15.90;69.10;;;;;;5027568;28;20650;-79
2022/09/22 12:33:22;;;;;;;0.40;0.40;;;15.80;68.30;;;;;;5026294;28;21275;-79
2022/09/22 12:35:53;;;;;;;0.70;0.70;;;15.80;69.00;;;;;;5026637;28;20712;-79
2022/09/22 12:38:22;;;;;;;0.87;0.50;;;15.80;67.80;;;;;;5028079;28;20630;-79
2022/09/22 12:40:54;;;;;;;1.90;0.97;;;15.80;67.80;;;;;;5027099;28;20656;-78
2022/09/22 12:43:23;;;;;;;0.50;0.50;;;15.80;68.50;;;;;;5026844;28;20631;-79
2022/09/22 12:45:52;;;;;;;0.97;0.97;;;15.80;67.50;;;;;;5027002;28;20635;-78
2022/09/22 12:48:23;;;;;;;1.00;0.80;;;15.80;67.70;;;;;;5026316;28;20635;-78
2022/09/22 12:50:51;;;;;;;0.60;0.50;;;15.80;67.70;;;;;;5023997;28;20712;-79
2022/09/22 12:53:26;;;;;;;0.90;0.90;;;15.90;69.30;;;;;;5023642;28;20650;-78
2022/09/22 12:55:55;;;;;;;0.60;0.57;;;15.90;67.40;;;;;;5023962;28;20634;-78
2022/09/22 12:58:42;;;;;;;0.40;0.40;;;15.80;66.60;;;;;;5027263;28;20625;-79
2022/09/22 13:01:32;;;;;;;0.50;0.50;;;15.90;65.60;;;;;;5027193;28;20628;-79
2022/09/22 13:04:13;;;;;;;1.17;0.60;;;15.90;65.70;;;;;;5025991;28;20627;-78
2022/09/22 13:06:55;;;;;;;0.60;0.60;;;15.90;65.00;;;;;;5026454;28;20730;-77
2022/09/22 13:09:25;;;;;;;1.30;0.73;;;15.90;65.60;;;;;;5026988;28;21050;-78
2022/09/22 13:12:26;;;;;;;0.80;0.80;;;15.90;68.40;;;;;;5013594;28;20697;-79
2022/09/22 13:14:59;;;;;;;1.00;1.00;;;15.90;66.50;;;;;;5025854;28;20649;-78
2022/09/22 13:17:43;;;;;;;0.90;0.70;;;16.00;65.70;;;;;;5023824;28;20730;-80
2022/09/22 13:20:25;;;;;;;0.50;0.50;;;16.00;64.60;;;;;;5025541;28;20631;-79
2022/09/22 13:22:55;;;;;;;0.50;0.50;;;15.90;67.70;;;;;;5019244;28;20635;-78
2022/09/22 13:25:28;;;;;;;1.17;0.67;;;15.90;68.10;;;;;;5026959;28;20630;-78
2022/09/22 13:28:14;;;;;;;1.43;0.80;;;16.00;67.20;;;;;;5025282;28;20635;-78
2022/09/22 13:30:42;;;;;;;1.83;0.90;;;16.10;65.80;;;;;;5026961;28;20631;-78